Dallas, Texas
Traffic Map
Current Weather Conditions
Dallas, Texas
Overcast
Overcast
45°
Feels Like: 38°
Wind Chill: 38° Ceiling: 1500
Heat Index: 45° Visibility: 10mi
Dew Point: 40° Wind: 15mph
Humidity: 82% Direction: 350° (N)
Pressure: 29.95in Gusts: 26mph
Raw Report DataKDAL 141430Z 35013G23KT 10SM OVC015 07/04 A2995 RMK AO2 DZE30 P0000 T00720044
Traffic Incident Summary
Active as of:
Severity:
Category:
InformationThere was an issue retrieving the traffic information for this location. Please try a different location or try again shortly.
Advertisements